Aérodrome :
LOGIN :

S'inscrire | Disclaimer

   EN    FR    IT 

 










Légende :    VFR   VFR Marginal   IFR   IFR Intensif   IFR Très Intensif
Visi : 
Plafond : 
>= 8 km
>= 3000ft
5 à 8 km
1000 à 3000 ft
1500m à 5 km
500 à 1000 ft
800 à 1500m
200 à 500 ft
< 800m
< 200 ft
Symboles :   Orages  Brouillard  Fortes neiges  Fortes précipitations  Vent > 20 kt
SIGMETs :   Divers  Orages  Givrage  Turbulence  Onde Orograph.  Cendres Volcan.







- Altitude de l'aérodrome : 7 ft
- Code IATA : XHE
- Voir les cartes d'approche


LFTH - Hyeres

DERNIER METAR :
  • 150930Z AUTO 33009KT 280V360 CAVOK 12/06 Q1002 TEMPO 29015G25KT

METARs EXPIRÉS :
  • 150900Z AUTO 34010KT 290V360 CAVOK 12/05 Q1003 TEMPO 29015G25KT
  • 150830Z AUTO 32009KT 280V360 CAVOK 11/07 Q1002 TEMPO 29015G25KT
  • 150800Z AUTO 33007KT 280V350 CAVOK 12/07 Q1003 NOSIG
  • 150730Z AUTO 28007KT CAVOK 12/07 Q1002 NOSIG
  • 150700Z AUTO 26010KT CAVOK 12/08 Q1003 NOSIG

TAF TAF LFTH
Valide du 15 à 09h jusqu'au 16 à 09h UTC


150800Z 1509/1609 32010KT CAVOK
TEMPO 1510/1606 29015G25KT
BECMG 1606/1609 30020G30KT
Pas de NOTAMs connus pour ce terrain.
1 SIGMET publié pour la FIR Marseille (LFMM) :
 
Turbulence forte
LFMM SIGMET 2 VALID 150700/151000 LFPW
LFMM MARSEILLE FIR/UIR SEV TURB OBS WI N4630 E00700 - N4430 E00700 - N4415 E00415 - N4545 E00415 - N4630 E00700 FL180/390 MOV SE 25KT NC=



MET'MAP, la Météo Aéronautique d'un coup d'oeil ! - Copyright ORBIFLY Décembre 2007 - Disclaimer

ORBIFLY MET'MAP TEAM :

Programmation & Développement : Alexandra Zaïnal
Conception & Développement : Baudouin d'Aumeries
Co-Programmation & Développement : Marc-Olivier Méhu
Soutien technique & logistique : Manuel Goepfert

Contact : metmap@orbifly.com




SOURCES & CREDITS :

   NOAA